createdAt,value
2018-10-12T00:00:45.326Z,39.93
2018-10-12T00:03:14.298Z,41.90
2018-10-12T00:05:43.018Z,39.57
2018-10-12T00:08:13.118Z,35.40
2018-10-12T00:10:41.331Z,32.50
2018-10-12T00:13:09.894Z,37.20
2018-10-12T00:15:38.066Z,36.53
2018-10-12T00:18:06.274Z,36.30
2018-10-12T00:20:35.387Z,36.13
2018-10-12T00:23:03.598Z,32.47
2018-10-12T00:25:32.406Z,31.00
2018-10-12T00:28:00.833Z,36.43
2018-10-12T00:30:30.141Z,36.27
2018-10-12T00:32:59.094Z,32.27
2018-10-12T00:35:27.256Z,31.17
2018-10-12T00:37:55.495Z,31.03
2018-10-12T00:40:23.670Z,32.27
2018-10-12T00:42:52.550Z,36.37
2018-10-12T00:45:22.138Z,36.00
2018-10-12T00:47:57.564Z,34.40
2018-10-12T00:50:25.779Z,35.47
2018-10-12T00:52:54.886Z,37.03
2018-10-12T00:55:24.451Z,35.07
2018-10-12T00:57:52.623Z,34.93
2018-10-12T01:00:21.042Z,35.70
2018-10-12T01:02:49.265Z,37.17
2018-10-12T01:05:17.466Z,37.37
2018-10-12T01:07:45.822Z,38.83
2018-10-12T01:10:14.092Z,36.30
2018-10-12T01:12:42.278Z,35.93
2018-10-12T01:15:11.271Z,39.10
2018-10-12T01:17:39.519Z,43.90
2018-10-12T01:20:08.203Z,47.87
2018-10-12T01:22:37.284Z,47.87
2018-10-12T01:25:06.387Z,41.40
2018-10-12T01:27:34.720Z,35.60
2018-10-12T01:30:03.477Z,35.57
2018-10-12T01:32:37.822Z,31.67
2018-10-12T01:35:05.953Z,31.90
2018-10-12T01:37:34.200Z,31.83
2018-10-12T01:40:02.390Z,32.77
2018-10-12T01:42:30.546Z,35.27
2018-10-12T01:44:58.760Z,36.27
2018-10-12T01:47:26.963Z,36.67
2018-10-12T01:49:55.417Z,37.13
2018-10-12T01:52:23.629Z,36.10
2018-10-12T01:54:52.136Z,35.37
2018-10-12T01:57:20.345Z,32.00
2018-10-12T01:59:48.544Z,33.63
2018-10-12T02:02:16.774Z,35.10
2018-10-12T02:04:45.776Z,36.43
2018-10-12T02:07:14.066Z,37.07
2018-10-12T02:09:42.313Z,33.43
2018-10-12T02:12:10.494Z,32.70
2018-10-12T02:14:39.120Z,31.17
2018-10-12T02:17:07.792Z,30.10
2018-10-12T02:19:36.062Z,29.60
2018-10-12T02:22:04.269Z,30.97
2018-10-12T02:24:32.494Z,28.40
2018-10-12T02:27:00.895Z,30.73
2018-10-12T02:29:29.894Z,28.80
2018-10-12T02:31:58.110Z,30.30
2018-10-12T02:34:26.303Z,30.53
2018-10-12T02:36:54.801Z,29.53
2018-10-12T02:39:23.404Z,27.07
2018-10-12T02:41:51.606Z,28.30
2018-10-12T02:44:19.819Z,31.77
2018-10-12T02:46:48.020Z,33.30
2018-10-12T02:49:16.261Z,50.53
2018-10-12T02:51:45.835Z,52.73
2018-10-12T02:54:14.439Z,39.30
2018-10-12T02:56:42.647Z,37.93
2018-10-12T02:59:10.878Z,37.10
2018-10-12T03:01:39.037Z,31.83
2018-10-12T03:04:07.286Z,31.43
2018-10-12T03:06:35.474Z,31.37
2018-10-12T03:09:04.979Z,32.97
2018-10-12T03:11:34.792Z,34.83
2018-10-12T03:14:02.961Z,33.90
2018-10-12T03:16:31.954Z,35.77
2018-10-12T03:19:00.715Z,38.10
2018-10-12T03:21:28.910Z,39.00
2018-10-12T03:23:57.094Z,35.90
2018-10-12T03:26:25.278Z,32.77
2018-10-12T03:28:54.191Z,33.27
2018-10-12T03:31:22.446Z,32.07
2018-10-12T03:33:50.654Z,33.20
2018-10-12T03:36:19.119Z,34.23
2018-10-12T03:38:47.387Z,31.00
2018-10-12T03:41:15.698Z,32.80
2018-10-12T03:43:43.982Z,35.60
2018-10-12T03:46:14.123Z,36.00
2018-10-12T03:48:42.319Z,34.67
2018-10-12T03:51:10.798Z,31.43
2018-10-12T03:53:39.158Z,30.03
2018-10-12T03:56:07.363Z,28.23
2018-10-12T03:58:35.934Z,27.77
2018-10-12T04:01:04.392Z,28.47
2018-10-12T04:03:32.559Z,28.67
2018-10-12T04:06:00.954Z,33.03
2018-10-12T04:08:29.188Z,34.03
2018-10-12T04:10:57.806Z,32.37
2018-10-12T04:13:26.450Z,30.13
2018-10-12T04:15:55.191Z,31.27
2018-10-12T04:18:23.395Z,30.33
2018-10-12T04:20:51.599Z,30.33
2018-10-12T04:23:19.803Z,33.97
2018-10-12T04:25:47.961Z,31.90
2018-10-12T04:28:16.558Z,32.47
2018-10-12T04:30:44.886Z,31.00
2018-10-12T04:33:13.106Z,31.53
2018-10-12T04:35:41.312Z,30.67
2018-10-12T04:38:09.499Z,30.80
2018-10-12T04:41:22.974Z,32.27
2018-10-12T04:43:56.022Z,33.13
2018-10-12T04:46:34.879Z,32.87
2018-10-12T04:49:04.738Z,37.60
2018-10-12T04:51:37.363Z,32.53
2018-10-12T04:54:06.203Z,32.33
2018-10-12T04:56:34.475Z,30.67
2018-10-12T04:59:02.680Z,32.47
2018-10-12T05:01:30.946Z,34.00
2018-10-12T05:03:59.178Z,38.37
2018-10-12T05:06:27.346Z,36.53
2018-10-12T05:08:55.562Z,37.73
2018-10-12T05:11:23.749Z,38.17
2018-10-12T05:13:51.930Z,37.30
2018-10-12T05:16:20.818Z,35.67
2018-10-12T05:18:48.988Z,35.80
2018-10-12T05:21:17.219Z,35.83
2018-10-12T05:23:45.666Z,35.73
2018-10-12T05:26:14.241Z,34.43
2018-10-12T05:28:42.451Z,35.90
2018-10-12T05:31:10.602Z,35.27
2018-10-12T05:33:39.535Z,33.23
2018-10-12T05:36:08.046Z,30.60
2018-10-12T05:38:36.918Z,31.37
2018-10-12T05:41:05.563Z,31.10
2018-10-12T05:43:33.841Z,29.73
2018-10-12T05:46:02.454Z,28.33
2018-10-12T05:48:41.926Z,30.63
2018-10-12T05:51:12.755Z,29.37
2018-10-12T05:53:41.103Z,28.20
2018-10-12T05:56:09.628Z,29.17
2018-10-12T05:58:38.586Z,29.57
2018-10-12T06:01:07.339Z,30.17
2018-10-12T06:03:35.736Z,29.33
2018-10-12T06:06:03.970Z,29.43
2018-10-12T06:08:32.933Z,31.40
2018-10-12T06:11:01.261Z,31.97
2018-10-12T06:13:29.470Z,32.37
2018-10-12T06:15:58.047Z,29.00
2018-10-12T06:18:26.707Z,29.57
2018-10-12T06:20:54.913Z,29.20
2018-10-12T06:23:23.175Z,27.53
2018-10-12T06:25:51.391Z,25.93
2018-10-12T06:28:20.529Z,26.13
2018-10-12T06:30:48.748Z,25.57
2018-10-12T06:33:17.306Z,27.47
2018-10-12T06:35:45.634Z,29.37
2018-10-12T06:38:13.833Z,30.83
2018-10-12T06:40:48.254Z,31.10
2018-10-12T06:43:16.389Z,27.73
2018-10-12T06:45:44.651Z,24.67
2018-10-12T06:48:13.431Z,21.67
2018-10-12T06:50:42.367Z,21.43
2018-10-12T06:53:11.138Z,18.83
2018-10-12T06:55:39.569Z,17.97
2018-10-12T06:58:08.096Z,16.90
2018-10-12T07:00:36.338Z,16.37
2018-10-12T07:03:04.590Z,16.23
2018-10-12T07:05:32.817Z,16.17
2018-10-12T07:08:01.083Z,15.50
2018-10-12T07:10:29.271Z,17.05
2018-10-12T07:12:57.685Z,17.15
2018-10-12T07:15:26.023Z,16.57
2018-10-12T07:17:54.247Z,16.40
2018-10-12T07:20:22.487Z,16.85
2018-10-12T07:22:50.701Z,16.85
2018-10-12T07:25:18.881Z,17.23
2018-10-12T07:27:47.095Z,18.35
2018-10-12T07:30:15.802Z,18.10
2018-10-12T07:32:44.125Z,20.25
2018-10-12T07:35:12.289Z,20.12
2018-10-12T07:37:40.526Z,19.98
2018-10-12T07:40:09.215Z,21.85
2018-10-12T07:42:38.027Z,20.10
2018-10-12T07:45:06.789Z,20.45
2018-10-12T07:47:34.947Z,20.68
2018-10-12T07:50:03.594Z,20.32
2018-10-12T07:52:31.807Z,19.10
2018-10-12T07:55:00.002Z,20.68
2018-10-12T07:57:31.350Z,20.52
2018-10-12T08:00:00.101Z,20.17
2018-10-12T08:02:29.085Z,20.55
2018-10-12T08:04:57.250Z,20.90
2018-10-12T08:07:25.490Z,20.65
2018-10-12T08:09:53.696Z,21.05
2018-10-12T08:12:21.894Z,21.30
2018-10-12T08:14:50.089Z,21.65
2018-10-12T08:17:19.718Z,20.43
2018-10-12T08:19:48.290Z,20.50
2018-10-12T08:22:16.494Z,20.57
2018-10-12T08:24:44.851Z,19.77
2018-10-12T08:27:13.130Z,19.27
2018-10-12T08:29:41.338Z,21.65
2018-10-12T08:32:09.802Z,19.23
2018-10-12T08:34:38.007Z,20.77
2018-10-12T08:37:06.898Z,21.00
2018-10-12T08:39:35.098Z,19.37
2018-10-12T08:42:03.347Z,20.32
2018-10-12T08:44:31.557Z,20.15
2018-10-12T08:46:59.778Z,19.55
2018-10-12T08:49:28.367Z,18.23
2018-10-12T08:51:56.562Z,17.40
2018-10-12T08:54:24.757Z,17.67
2018-10-12T08:56:52.939Z,19.30
2018-10-12T08:59:21.491Z,16.65
2018-10-12T09:01:49.707Z,20.68
2018-10-12T09:04:17.917Z,18.23
2018-10-12T09:06:46.355Z,18.05
2018-10-12T09:09:14.940Z,18.87
2018-10-12T09:11:43.790Z,16.90
2018-10-12T09:14:12.126Z,17.20
2018-10-12T09:16:40.326Z,17.70
2018-10-12T09:19:08.937Z,18.17
2018-10-12T09:21:38.551Z,17.65
2018-10-12T09:24:08.627Z,16.20
2018-10-12T09:26:37.826Z,17.02
2018-10-12T09:29:06.187Z,16.12
2018-10-12T09:31:36.339Z,15.53
2018-10-12T09:34:04.918Z,15.68
2018-10-12T09:36:33.247Z,16.93
2018-10-12T09:39:01.570Z,15.60
2018-10-12T09:41:30.174Z,14.85
2018-10-12T09:43:58.663Z,17.30
2018-10-12T09:46:27.350Z,13.60
2018-10-12T09:48:55.506Z,15.98
2018-10-12T09:51:23.706Z,18.07
2018-10-12T09:53:52.454Z,15.58
2018-10-12T09:56:21.019Z,14.60
2018-10-12T09:58:49.807Z,16.10
2018-10-12T10:01:23.478Z,15.18
2018-10-12T10:03:57.224Z,14.35
2018-10-12T10:06:26.190Z,13.98
2018-10-12T10:08:54.433Z,12.30
2018-10-12T10:11:22.590Z,12.63
2018-10-12T10:13:51.189Z,11.95
2018-10-12T10:16:22.050Z,10.55
2018-10-12T10:18:51.155Z,10.45
2018-10-12T10:21:19.696Z,12.82
2018-10-12T10:23:54.066Z,11.03
2018-10-12T10:26:22.278Z,11.68
2018-10-12T10:28:50.486Z,11.48
2018-10-12T10:31:18.908Z,9.80
2018-10-12T10:33:47.072Z,10.63
2018-10-12T10:36:15.379Z,9.70
2018-10-12T10:38:43.563Z,9.78
2018-10-12T10:41:11.773Z,8.10
2018-10-12T10:43:40.266Z,8.98
2018-10-12T10:46:08.492Z,9.80
2018-10-12T10:48:36.690Z,8.90
2018-10-12T10:51:05.634Z,7.62
2018-10-12T10:53:33.871Z,8.88
2018-10-12T10:56:02.236Z,9.63
2018-10-12T10:58:30.590Z,7.45
2018-10-12T11:00:58.780Z,8.15
2018-10-12T11:03:26.962Z,8.75
2018-10-12T11:05:55.166Z,6.80
2018-10-12T11:08:27.678Z,7.80
2018-10-12T11:10:56.690Z,7.83
2018-10-12T11:13:24.924Z,7.05
2018-10-12T11:15:53.106Z,5.70
2018-10-12T11:18:27.190Z,6.90
2018-10-12T11:20:55.524Z,6.35
2018-10-12T11:23:23.685Z,5.70
2018-10-12T11:25:51.898Z,6.83
2018-10-12T11:28:20.116Z,6.10
2018-10-12T11:30:48.306Z,5.25
2018-10-12T11:33:17.121Z,5.37
2018-10-12T11:35:51.958Z,4.75
2018-10-12T11:38:20.979Z,4.30
2018-10-12T11:40:49.146Z,4.70
2018-10-12T11:43:30.329Z,3.67
2018-10-12T11:46:00.082Z,3.70
2018-10-12T11:48:28.413Z,3.98
2018-10-12T11:50:56.635Z,3.25
2018-10-12T11:53:25.329Z,3.98
2018-10-12T11:55:53.538Z,3.60
2018-10-12T11:58:22.023Z,3.45
2018-10-12T12:00:50.232Z,3.58
2018-10-12T12:03:19.886Z,3.05
2018-10-12T12:05:48.182Z,2.87
2018-10-12T12:08:16.557Z,2.90
2018-10-12T12:10:45.350Z,3.02
2018-10-12T12:13:13.906Z,3.30
2018-10-12T12:15:42.070Z,3.02
2018-10-12T12:18:10.731Z,2.80
2018-10-12T12:20:38.942Z,2.95
2018-10-12T12:23:07.617Z,2.52
2018-10-12T12:25:35.805Z,2.77
2018-10-12T12:28:05.045Z,3.15
2018-10-12T12:30:33.243Z,2.65
2018-10-12T12:33:02.006Z,2.80
2018-10-12T12:35:30.817Z,3.12
2018-10-12T12:37:58.706Z,2.67
2018-10-12T12:40:26.861Z,2.77
2018-10-12T12:42:55.074Z,2.00
2018-10-12T12:45:23.694Z,2.50
2018-10-12T12:47:55.443Z,2.37
2018-10-12T12:50:24.198Z,2.75
2018-10-12T12:52:52.326Z,2.80
2018-10-12T12:58:28.391Z,2.20
2018-10-12T13:00:57.546Z,2.25
2018-10-12T13:03:25.748Z,2.30
2018-10-12T13:05:54.568Z,2.92
2018-10-12T13:08:22.758Z,2.10
2018-10-12T13:10:51.643Z,2.12
2018-10-12T13:13:21.032Z,2.10
2018-10-12T13:15:49.191Z,1.82
2018-10-12T13:18:17.489Z,2.02
2018-10-12T13:20:45.665Z,2.00
2018-10-12T13:23:14.202Z,2.22
2018-10-12T13:25:43.156Z,2.42
2018-10-12T13:28:11.286Z,2.30
2018-10-12T13:30:40.131Z,2.08
2018-10-12T13:33:08.302Z,1.82
2018-10-12T13:35:36.543Z,2.00
2018-10-12T13:38:05.098Z,2.40
2018-10-12T13:40:33.286Z,2.42
2018-10-12T13:43:01.594Z,2.20
2018-10-12T13:45:29.859Z,2.30
2018-10-12T13:47:58.443Z,2.67
2018-10-12T13:50:26.637Z,2.50
2018-10-12T13:52:54.833Z,2.50
2018-10-12T13:55:29.324Z,2.40
2018-10-12T13:57:57.678Z,2.27
2018-10-12T14:00:25.896Z,2.67
2018-10-12T14:02:53.984Z,2.60
2018-10-12T14:05:22.162Z,2.52
2018-10-12T14:07:50.396Z,2.08
2018-10-12T14:10:18.599Z,2.05
2018-10-12T14:12:47.793Z,2.25
2018-10-12T14:15:16.247Z,2.15
2018-10-12T14:17:44.405Z,2.00
2018-10-12T14:20:12.607Z,1.98
2018-10-12T14:22:40.781Z,1.90
2018-10-12T14:25:09.085Z,2.00
2018-10-12T14:27:37.782Z,2.22
2018-10-12T14:30:06.948Z,2.12
2018-10-12T14:32:35.126Z,2.30
2018-10-12T14:35:03.547Z,2.22
2018-10-12T14:37:31.833Z,1.90
2018-10-12T14:40:00.455Z,2.02
2018-10-12T14:42:29.079Z,1.87
2018-10-12T14:44:57.292Z,1.77
2018-10-12T14:47:25.594Z,1.95
2018-10-12T14:49:53.794Z,2.60
2018-10-12T14:52:21.990Z,1.80
2018-10-12T14:54:50.908Z,2.05
2018-10-12T14:57:19.898Z,2.10
2018-10-12T14:59:49.564Z,2.33
2018-10-12T15:02:18.569Z,1.77
2018-10-12T15:04:47.202Z,2.20
2018-10-12T15:07:15.802Z,2.10
2018-10-12T15:09:44.150Z,2.12
2018-10-12T15:12:12.320Z,1.92
2018-10-12T15:14:51.895Z,2.20
2018-10-12T15:17:20.079Z,1.92
2018-10-12T15:19:48.858Z,2.52
2018-10-12T15:22:17.082Z,2.20
2018-10-12T15:24:45.234Z,2.00
2018-10-12T15:27:13.419Z,2.25
2018-10-12T15:29:42.546Z,2.30
2018-10-12T15:32:10.779Z,2.62
2018-10-12T15:34:40.862Z,2.52
2018-10-12T15:37:09.121Z,2.30
2018-10-12T15:39:38.152Z,2.50
2018-10-12T15:42:06.339Z,2.30
2018-10-12T15:44:34.533Z,2.12
2018-10-12T15:47:02.738Z,2.40
2018-10-12T15:49:31.883Z,2.80
2018-10-12T15:52:00.518Z,2.62
2018-10-12T15:54:29.161Z,2.47
2018-10-12T15:56:57.813Z,3.42
2018-10-12T15:59:25.959Z,2.90
2018-10-12T16:01:54.123Z,3.62
2018-10-12T16:04:22.554Z,2.95
2018-10-12T16:06:51.299Z,2.52
2018-10-12T16:09:19.450Z,2.83
2018-10-12T16:11:47.698Z,2.98
2018-10-12T16:14:15.866Z,2.72
2018-10-12T16:16:44.055Z,2.87
2018-10-12T16:19:12.285Z,2.27
2018-10-12T16:21:41.309Z,2.00
2018-10-12T16:24:10.884Z,2.33
2018-10-12T16:26:39.066Z,2.52
2018-10-12T16:29:07.341Z,1.92
2018-10-12T16:31:35.466Z,2.10
2018-10-12T16:34:03.898Z,2.20
2018-10-12T16:36:32.105Z,2.40
2018-10-12T16:39:00.366Z,2.22
2018-10-12T16:41:28.534Z,2.50
2018-10-12T16:43:56.727Z,2.20
2018-10-12T16:46:25.822Z,2.33
2018-10-12T16:48:54.457Z,2.15
2018-10-12T16:51:23.253Z,3.02
2018-10-12T16:53:51.843Z,2.45
2018-10-12T16:56:20.026Z,3.27
2018-10-12T16:58:48.248Z,3.37
2018-10-12T17:01:16.654Z,2.87
2018-10-12T17:03:45.896Z,2.67
2018-10-12T17:06:14.102Z,2.60
2018-10-12T17:08:42.958Z,3.17
2018-10-12T17:11:11.905Z,2.90
2018-10-12T17:13:40.078Z,2.90
2018-10-12T17:16:08.263Z,2.80
2018-10-12T17:18:36.470Z,3.37
2018-10-12T17:21:05.382Z,3.22
2018-10-12T17:23:35.472Z,3.25
2018-10-12T17:26:03.912Z,2.95
2018-10-12T17:28:32.163Z,3.35
2018-10-12T17:31:00.735Z,3.27
2018-10-12T17:33:29.156Z,3.20
2018-10-12T17:35:57.352Z,3.00
2018-10-12T17:38:26.251Z,3.58
2018-10-12T17:40:54.422Z,3.37
2018-10-12T17:43:22.664Z,4.30
2018-10-12T17:45:50.871Z,3.70
2018-10-12T17:48:19.022Z,3.22
2018-10-12T17:50:47.195Z,3.60
2018-10-12T17:53:15.395Z,3.27
2018-10-12T17:55:43.594Z,3.17
2018-10-12T17:58:11.777Z,3.63
2018-10-12T18:00:39.955Z,3.50
2018-10-12T18:03:08.143Z,3.30
2018-10-12T18:05:36.342Z,3.40
2018-10-12T18:08:04.526Z,3.90
2018-10-12T18:10:33.150Z,3.43
2018-10-12T18:13:01.945Z,4.13
2018-10-12T18:15:30.122Z,3.90
2018-10-12T18:17:58.322Z,4.57
2018-10-12T18:20:26.822Z,4.27
2018-10-12T18:22:55.406Z,5.00
2018-10-12T18:25:23.528Z,4.53
2018-10-12T18:27:51.715Z,4.37
2018-10-12T18:30:19.942Z,4.50
2018-10-12T18:32:48.158Z,4.70
2018-10-12T18:35:16.574Z,4.33
2018-10-12T18:37:44.921Z,4.70
2018-10-12T18:40:13.131Z,5.10
2018-10-12T18:42:41.327Z,5.27
2018-10-12T18:45:09.610Z,4.87
2018-10-12T18:47:37.825Z,5.43
2018-10-12T18:50:05.962Z,5.40
2018-10-12T18:52:34.158Z,5.63
2018-10-12T18:55:02.344Z,5.90
2018-10-12T18:57:33.365Z,6.17
2018-10-12T19:00:02.631Z,5.80
2018-10-12T19:02:30.974Z,6.13
2018-10-12T19:04:59.317Z,6.33
2018-10-12T19:07:27.442Z,6.60
2018-10-12T19:09:56.518Z,6.50
2018-10-12T19:12:24.715Z,6.10
2018-10-12T19:14:52.918Z,6.00
2018-10-12T19:17:22.719Z,6.23
2018-10-12T19:19:51.286Z,5.90
2018-10-12T19:22:19.557Z,6.23
2018-10-12T19:24:47.746Z,6.00
2018-10-12T19:27:15.927Z,6.10
2018-10-12T19:29:45.917Z,6.07
2018-10-12T19:32:14.134Z,6.57
2018-10-12T19:34:42.338Z,7.00
2018-10-12T19:37:10.543Z,6.80
2018-10-12T19:39:38.716Z,6.23
2018-10-12T19:42:06.929Z,6.63
2018-10-12T19:44:35.119Z,6.60
2018-10-12T19:47:03.348Z,6.27
2018-10-12T19:49:31.542Z,6.70
2018-10-12T19:51:59.738Z,6.20
2018-10-12T19:54:27.994Z,6.10
2018-10-12T19:56:56.186Z,5.93
2018-10-12T19:59:24.378Z,6.93
2018-10-12T20:01:52.583Z,7.63
2018-10-12T20:04:21.278Z,6.90
2018-10-12T20:06:49.796Z,6.77
2018-10-12T20:09:18.628Z,5.90
2018-10-12T20:11:46.843Z,7.00
2018-10-12T20:14:15.019Z,5.90
2018-10-12T20:16:43.202Z,7.30
2018-10-12T20:19:11.417Z,6.63
2018-10-12T20:21:40.094Z,6.27
2018-10-12T20:24:08.811Z,5.50
2018-10-12T20:26:37.370Z,5.20
2018-10-12T20:29:05.672Z,7.43
2018-10-12T20:31:33.954Z,6.53
2018-10-12T20:34:02.091Z,5.80
2018-10-12T20:36:30.430Z,5.70
2018-10-12T20:38:58.615Z,4.83
2018-10-12T20:41:26.787Z,4.77
2018-10-12T20:43:54.982Z,5.20
2018-10-12T20:46:24.713Z,5.60
2018-10-12T20:48:53.219Z,6.03
2018-10-12T20:51:23.839Z,5.80
2018-10-12T20:53:52.017Z,6.10
2018-10-12T20:56:20.226Z,5.67
2018-10-12T20:58:48.403Z,6.57
2018-10-12T21:01:16.831Z,6.47
2018-10-12T21:03:45.036Z,6.30
2018-10-12T21:06:14.120Z,7.00
2018-10-12T21:08:42.254Z,7.57
2018-10-12T21:11:10.486Z,7.47
2018-10-12T21:13:38.817Z,7.50
2018-10-12T21:16:07.575Z,7.00
2018-10-12T21:18:36.114Z,7.37
2018-10-12T21:21:04.306Z,7.27
2018-10-12T21:23:33.014Z,7.00
2018-10-12T21:26:03.059Z,7.43
2018-10-12T21:28:31.345Z,7.53
2018-10-12T21:30:59.543Z,6.93
2018-10-12T21:33:27.716Z,7.73
2018-10-12T21:35:55.942Z,7.90
2018-10-12T21:38:24.148Z,8.30
2018-10-12T21:40:52.340Z,6.93
2018-10-12T21:43:20.543Z,8.73
2018-10-12T21:45:49.153Z,8.87
2018-10-12T21:48:17.477Z,7.93
2018-10-12T21:50:45.737Z,7.50
2018-10-12T21:53:13.951Z,7.37
2018-10-12T21:55:42.759Z,7.23
2018-10-12T21:58:10.953Z,8.37
2018-10-12T22:00:39.193Z,7.77
2018-10-12T22:03:07.498Z,8.27
2018-10-12T22:05:35.690Z,7.47
2018-10-12T22:08:03.878Z,7.43
2018-10-12T22:10:32.070Z,7.40
2018-10-12T22:13:00.745Z,7.00
2018-10-12T22:15:28.962Z,6.23
2018-10-12T22:17:57.227Z,7.07
2018-10-12T22:20:25.444Z,7.70
2018-10-12T22:22:53.650Z,7.40
2018-10-12T22:25:21.857Z,7.10
2018-10-12T22:27:50.147Z,7.93
2018-10-12T22:30:18.562Z,8.13
2018-10-12T22:32:47.078Z,8.17
2018-10-12T22:35:15.466Z,7.60
2018-10-12T22:37:43.691Z,8.10
2018-10-12T22:40:12.179Z,7.60
2018-10-12T22:42:40.449Z,7.80
2018-10-12T22:45:09.516Z,8.60
2018-10-12T22:47:37.758Z,8.30
2018-10-12T22:50:06.061Z,8.40
2018-10-12T22:52:34.664Z,7.77
2018-10-12T22:55:02.939Z,8.67
2018-10-12T22:57:31.710Z,7.60
2018-10-12T22:59:59.895Z,7.80
2018-10-12T23:02:28.134Z,6.97
2018-10-12T23:04:56.350Z,7.27
2018-10-12T23:07:24.563Z,7.80
2018-10-12T23:09:54.388Z,7.93
2018-10-12T23:12:22.835Z,7.60
2018-10-12T23:14:50.983Z,7.20
2018-10-12T23:17:19.187Z,7.70
2018-10-12T23:19:47.355Z,7.63
2018-10-12T23:22:15.590Z,7.60
2018-10-12T23:24:43.779Z,7.37
2018-10-12T23:27:11.986Z,7.10
2018-10-12T23:29:40.181Z,7.67
2018-10-12T23:32:08.348Z,8.13
2018-10-12T23:34:36.565Z,7.50
2018-10-12T23:37:05.306Z,7.00
2018-10-12T23:39:33.485Z,6.97
2018-10-12T23:42:03.621Z,7.63
2018-10-12T23:44:31.814Z,7.27
2018-10-12T23:47:00.165Z,7.30
2018-10-12T23:49:28.845Z,7.03
2018-10-12T23:51:57.020Z,7.67
2018-10-12T23:54:25.586Z,7.03
2018-10-12T23:56:53.803Z,8.10
2018-10-12T23:59:21.986Z,7.33
